createdAt,value
2018-04-30T00:01:44.713Z,45.34
2018-04-30T00:04:15.271Z,45.36
2018-04-30T00:06:46.166Z,45.35
2018-04-30T00:09:17.963Z,45.33
2018-04-30T00:11:47.883Z,45.38
2018-04-30T00:14:17.648Z,45.36
2018-04-30T00:16:47.045Z,45.37
2018-04-30T00:19:17.972Z,45.39
2018-04-30T00:21:47.583Z,45.38
2018-04-30T00:24:17.047Z,45.38
2018-04-30T00:26:46.950Z,45.37
2018-04-30T00:29:17.192Z,45.38
2018-04-30T00:31:47.339Z,45.39
2018-04-30T00:34:17.912Z,45.41
2018-04-30T00:36:47.861Z,45.42
2018-04-30T00:39:18.153Z,45.45
2018-04-30T00:41:47.553Z,45.45
2018-04-30T00:44:17.346Z,45.47
2018-04-30T00:46:47.268Z,45.47
2018-04-30T00:49:17.955Z,45.48
2018-04-30T00:51:48.494Z,45.45
2018-04-30T00:54:26.649Z,45.47
2018-04-30T00:56:56.187Z,45.43
2018-04-30T00:59:26.298Z,45.49
2018-04-30T01:01:58.060Z,45.49
2018-04-30T01:04:27.814Z,45.51
2018-04-30T01:06:57.764Z,45.45
2018-04-30T01:09:27.544Z,45.40
2018-04-30T01:12:00.244Z,45.46
2018-04-30T01:14:31.506Z,45.51
2018-04-30T01:17:01.797Z,45.54
2018-04-30T01:19:33.936Z,45.53
2018-04-30T01:22:04.229Z,45.56
2018-04-30T01:24:34.755Z,45.56
2018-04-30T01:27:04.638Z,45.57
2018-04-30T01:29:34.870Z,45.55
2018-04-30T01:32:04.537Z,45.56
2018-04-30T01:34:34.194Z,45.55
2018-04-30T01:37:04.012Z,45.54
2018-04-30T01:39:33.637Z,45.56
2018-04-30T01:42:03.972Z,45.57
2018-04-30T01:44:34.605Z,45.60
2018-04-30T01:47:04.244Z,45.58
2018-04-30T01:49:34.200Z,45.59
2018-04-30T01:52:04.099Z,45.60
2018-04-30T01:54:34.761Z,45.60
2018-04-30T01:57:04.402Z,45.58
2018-04-30T01:59:34.316Z,45.61
2018-04-30T02:02:05.920Z,45.62
2018-04-30T02:04:40.378Z,45.60
2018-04-30T02:07:10.857Z,45.58
2018-04-30T02:09:42.338Z,45.56
2018-04-30T02:12:11.951Z,45.56
2018-04-30T02:14:43.827Z,45.55
2018-04-30T02:17:14.528Z,45.59
2018-04-30T02:19:44.462Z,45.59
2018-04-30T02:22:14.433Z,45.65
2018-04-30T02:24:44.329Z,45.63
2018-04-30T02:27:14.622Z,45.63
2018-04-30T02:29:44.349Z,45.64
2018-04-30T02:32:14.522Z,45.63
2018-04-30T02:34:44.070Z,45.61
2018-04-30T02:37:13.818Z,45.63
2018-04-30T02:39:46.021Z,45.58
2018-04-30T02:42:16.454Z,45.67
2018-04-30T02:44:46.243Z,45.68
2018-04-30T02:47:16.004Z,45.64
2018-04-30T02:49:45.863Z,45.69
2018-04-30T02:52:15.586Z,45.69
2018-04-30T02:54:45.937Z,45.72
2018-04-30T02:57:15.583Z,45.68
2018-04-30T02:59:46.073Z,45.71
2018-04-30T03:02:16.320Z,45.71
2018-04-30T03:04:46.697Z,45.72
2018-04-30T03:07:16.619Z,45.68
2018-04-30T03:09:47.205Z,45.64
2018-04-30T03:12:17.972Z,45.64
2018-04-30T03:14:47.743Z,45.67
2018-04-30T03:17:17.655Z,45.69
2018-04-30T03:19:48.190Z,45.63
2018-04-30T03:22:18.227Z,45.66
2018-04-30T03:24:47.902Z,45.75
2018-04-30T03:27:18.534Z,45.75
2018-04-30T03:29:55.476Z,45.75
2018-04-30T03:32:25.962Z,45.74
2018-04-30T03:34:56.614Z,45.78
2018-04-30T03:37:26.717Z,45.76
2018-04-30T03:39:56.713Z,45.75
2018-04-30T03:42:26.713Z,45.77
2018-04-30T03:44:56.610Z,45.74
2018-04-30T03:47:27.328Z,45.71
2018-04-30T03:49:56.945Z,45.73
2018-04-30T03:52:26.605Z,45.70
2018-04-30T03:54:56.403Z,45.69
2018-04-30T03:57:26.077Z,45.74
2018-04-30T03:59:55.950Z,45.88
2018-04-30T04:08:55.618Z,45.80
2018-04-30T04:11:26.091Z,45.82
2018-04-30T04:13:55.831Z,45.84
2018-04-30T04:16:25.405Z,45.81
2018-04-30T04:18:54.782Z,45.85
2018-04-30T04:21:24.461Z,45.79
2018-04-30T04:23:54.164Z,45.77
2018-04-30T04:26:24.655Z,45.79
2018-04-30T04:28:55.385Z,45.84
2018-04-30T04:31:26.382Z,45.82
2018-04-30T04:33:56.295Z,45.86
2018-04-30T04:36:26.405Z,45.87
2018-04-30T04:38:56.022Z,45.84
2018-04-30T04:41:25.494Z,45.86
2018-04-30T04:43:55.385Z,45.87
2018-04-30T04:46:25.393Z,45.81
2018-04-30T04:48:56.057Z,45.78
2018-04-30T04:51:26.727Z,45.81
2018-04-30T04:53:56.508Z,45.83
2018-04-30T04:56:26.627Z,45.77
2018-04-30T04:58:56.240Z,45.79
2018-04-30T05:01:26.476Z,45.79
2018-04-30T05:03:56.071Z,45.78
2018-04-30T05:06:25.978Z,45.75
2018-04-30T05:08:56.009Z,45.72
2018-04-30T05:11:25.762Z,45.67
2018-04-30T05:13:55.523Z,45.73
2018-04-30T05:16:27.595Z,45.80
2018-04-30T05:18:57.474Z,45.80
2018-04-30T05:21:27.961Z,45.77
2018-04-30T05:23:57.882Z,45.72
2018-04-30T05:26:28.113Z,45.72
2018-04-30T05:28:58.142Z,45.61
2018-04-30T05:31:28.741Z,45.62
2018-04-30T05:33:58.426Z,45.59
2018-04-30T05:36:28.734Z,45.60
2018-04-30T05:38:58.713Z,45.62
2018-04-30T05:41:28.126Z,45.62
2018-04-30T05:43:58.685Z,45.58
2018-04-30T05:46:29.031Z,45.62
2018-04-30T05:48:58.455Z,45.63
2018-04-30T05:51:28.527Z,45.60
2018-04-30T05:53:57.989Z,45.62
2018-04-30T05:56:27.531Z,45.57
2018-04-30T05:58:57.421Z,45.54
2018-04-30T06:01:28.755Z,45.49
2018-04-30T06:03:58.347Z,45.44
2018-04-30T06:06:28.278Z,45.43
2018-04-30T06:08:57.925Z,45.40
2018-04-30T06:11:28.375Z,45.29
2018-04-30T06:13:58.257Z,45.28
2018-04-30T06:16:27.751Z,45.27
2018-04-30T06:18:57.547Z,45.23
2018-04-30T06:21:28.020Z,45.23
2018-04-30T06:23:57.417Z,45.16
2018-04-30T06:26:27.589Z,45.15
2018-04-30T06:28:57.410Z,45.07
2018-04-30T06:31:26.850Z,45.04
2018-04-30T06:33:56.282Z,45.06
2018-04-30T06:36:26.644Z,45.03
2018-04-30T06:38:56.056Z,45.09
2018-04-30T06:41:26.100Z,45.10
2018-04-30T06:43:55.591Z,45.14
2018-04-30T06:46:25.462Z,45.19
2018-04-30T06:48:55.251Z,45.19
2018-04-30T06:51:25.199Z,45.20
2018-04-30T06:53:54.653Z,45.20
2018-04-30T06:56:24.241Z,45.27
2018-04-30T06:58:54.190Z,45.23
2018-04-30T07:01:25.149Z,45.19
2018-04-30T07:03:54.644Z,45.20
2018-04-30T07:06:25.036Z,45.24
2018-04-30T07:08:56.072Z,45.29
2018-04-30T07:11:27.556Z,45.32
2018-04-30T07:13:57.839Z,45.36
2018-04-30T07:16:27.802Z,45.37
2018-04-30T07:18:57.263Z,45.47
2018-04-30T07:21:27.020Z,45.43
2018-04-30T07:23:57.518Z,45.44
2018-04-30T07:26:27.967Z,45.41
2018-04-30T07:28:58.572Z,45.43
2018-04-30T07:31:28.976Z,45.41
2018-04-30T07:33:58.554Z,45.38
2018-04-30T07:36:28.557Z,45.38
2018-04-30T07:38:57.965Z,45.44
2018-04-30T07:41:27.483Z,45.38
2018-04-30T07:43:57.378Z,45.30
2018-04-30T07:46:27.229Z,45.22
2018-04-30T07:48:57.175Z,45.19
2018-04-30T07:51:26.700Z,45.16
2018-04-30T07:53:56.161Z,45.10
2018-04-30T07:56:26.463Z,45.02
2018-04-30T07:58:56.116Z,44.95
2018-04-30T08:01:27.648Z,44.81
2018-04-30T08:03:57.386Z,44.77
2018-04-30T08:06:28.018Z,44.71
2018-04-30T08:08:59.734Z,44.66
2018-04-30T08:11:31.469Z,44.65
2018-04-30T08:14:01.666Z,44.58
2018-04-30T08:16:31.075Z,44.54
2018-04-30T08:19:00.654Z,44.51
2018-04-30T08:21:30.262Z,44.47
2018-04-30T08:24:00.002Z,44.42
2018-04-30T08:26:29.771Z,44.36
2018-04-30T08:29:00.622Z,44.28
2018-04-30T08:31:30.997Z,44.17
2018-04-30T08:34:01.525Z,44.15
2018-04-30T08:36:31.272Z,44.12
2018-04-30T08:39:00.977Z,44.05
2018-04-30T08:41:31.393Z,43.97
2018-04-30T08:44:01.075Z,43.97
2018-04-30T08:46:30.715Z,43.98
2018-04-30T08:49:00.723Z,43.98
2018-04-30T08:51:32.187Z,43.93
2018-04-30T08:54:01.928Z,43.81
2018-04-30T08:56:31.672Z,43.89
2018-04-30T08:59:01.108Z,43.94
2018-04-30T09:01:30.957Z,43.96
2018-04-30T09:04:00.543Z,43.94
2018-04-30T09:06:30.336Z,43.92
2018-04-30T09:08:59.794Z,43.85
2018-04-30T09:11:29.220Z,43.83
2018-04-30T09:13:58.604Z,43.79
2018-04-30T09:16:28.488Z,43.80
2018-04-30T09:18:57.979Z,43.83
2018-04-30T09:21:27.538Z,43.87
2018-04-30T09:23:57.046Z,43.90
2018-04-30T09:26:26.499Z,43.93
2018-04-30T09:28:56.011Z,43.94
2018-04-30T09:31:26.532Z,43.91
2018-04-30T09:33:56.249Z,43.88
2018-04-30T09:36:26.685Z,43.80
2018-04-30T09:38:56.955Z,43.72
2018-04-30T09:41:26.370Z,43.67
2018-04-30T09:43:56.602Z,43.68
2018-04-30T09:46:26.839Z,43.66
2018-04-30T09:48:56.732Z,43.66
2018-04-30T09:51:26.263Z,43.68
2018-04-30T09:53:57.095Z,43.73
2018-04-30T09:56:28.103Z,43.81
2018-04-30T09:59:02.908Z,43.87
2018-04-30T10:01:34.015Z,43.81
2018-04-30T10:04:03.757Z,43.67
2018-04-30T10:06:33.837Z,43.64
2018-04-30T10:09:03.676Z,43.58
2018-04-30T10:11:33.531Z,43.52
2018-04-30T10:14:02.947Z,43.51
2018-04-30T10:16:33.711Z,43.48
2018-04-30T10:19:03.156Z,43.44
2018-04-30T10:21:33.327Z,43.45
2018-04-30T10:24:02.888Z,43.40
2018-04-30T10:26:32.935Z,43.37
2018-04-30T10:29:03.302Z,43.28
2018-04-30T10:31:32.881Z,43.24
2018-04-30T10:34:02.497Z,43.13
2018-04-30T10:36:32.066Z,43.10
2018-04-30T10:39:02.655Z,43.08
2018-04-30T10:41:32.635Z,43.12
2018-04-30T10:44:02.685Z,43.02
2018-04-30T10:46:32.245Z,42.98
2018-04-30T10:49:02.005Z,42.89
2018-04-30T10:51:31.819Z,42.79
2018-04-30T10:54:01.872Z,42.71
2018-04-30T10:56:31.686Z,42.72
2018-04-30T10:59:01.557Z,42.72
2018-04-30T11:01:31.190Z,42.69
2018-04-30T11:04:00.945Z,42.76
2018-04-30T11:06:31.383Z,42.79
2018-04-30T11:09:00.877Z,42.79
2018-04-30T11:11:30.543Z,42.79
2018-04-30T11:13:59.993Z,42.82
2018-04-30T11:16:32.394Z,42.87
2018-04-30T11:19:09.534Z,42.91
2018-04-30T11:21:41.042Z,43.01
2018-04-30T11:24:13.295Z,42.93
2018-04-30T11:26:43.306Z,42.85
2018-04-30T11:29:13.559Z,42.91
2018-04-30T11:31:45.833Z,42.94
2018-04-30T11:34:15.885Z,42.97
2018-04-30T11:36:46.048Z,43.02
2018-04-30T11:39:15.997Z,43.01
2018-04-30T11:41:45.725Z,43.05
2018-04-30T11:44:15.357Z,43.09
2018-04-30T11:46:45.293Z,43.11
2018-04-30T11:49:16.217Z,43.05
2018-04-30T11:51:46.096Z,42.95
2018-04-30T11:54:16.340Z,42.94
2018-04-30T11:56:46.104Z,42.99
2018-04-30T11:59:15.639Z,42.99
2018-04-30T12:01:45.398Z,42.99
2018-04-30T12:04:14.968Z,43.00
2018-04-30T12:06:45.074Z,43.04
2018-04-30T12:09:15.051Z,43.08
2018-04-30T12:11:44.560Z,43.06
2018-04-30T12:14:14.013Z,43.07
2018-04-30T12:16:44.456Z,42.87
2018-04-30T12:19:14.149Z,42.98
2018-04-30T12:21:43.778Z,42.90
2018-04-30T12:24:14.086Z,42.84
2018-04-30T12:26:45.026Z,42.67
2018-04-30T12:29:14.481Z,42.60
2018-04-30T12:31:45.256Z,42.57
2018-04-30T12:34:14.928Z,42.55
2018-04-30T12:36:45.036Z,42.62
2018-04-30T12:39:14.857Z,42.59
2018-04-30T12:41:45.338Z,42.62
2018-04-30T12:44:14.758Z,42.75
2018-04-30T12:46:45.018Z,42.77
2018-04-30T12:49:14.518Z,42.81
2018-04-30T12:51:44.258Z,42.78
2018-04-30T12:54:15.571Z,42.73
2018-04-30T12:56:45.060Z,42.71
2018-04-30T12:59:14.687Z,42.56
2018-04-30T13:01:44.809Z,42.43
2018-04-30T13:04:15.204Z,42.42
2018-04-30T13:06:44.646Z,42.38
2018-04-30T13:09:14.534Z,42.44
2018-04-30T13:11:43.985Z,42.47
2018-04-30T13:14:13.409Z,42.46
2018-04-30T13:16:44.038Z,42.44
2018-04-30T13:19:14.231Z,42.50
2018-04-30T13:21:45.031Z,42.41
2018-04-30T13:24:15.030Z,42.44
2018-04-30T13:26:45.111Z,42.44
2018-04-30T13:29:15.920Z,42.44
2018-04-30T13:31:47.433Z,42.42
2018-04-30T13:34:17.628Z,42.47
2018-04-30T13:36:47.846Z,42.38
2018-04-30T13:39:19.996Z,42.42
2018-04-30T13:41:52.462Z,42.38
2018-04-30T13:44:23.542Z,42.37
2018-04-30T13:46:53.293Z,42.42
2018-04-30T13:49:23.365Z,42.36
2018-04-30T13:51:52.742Z,42.29
2018-04-30T13:54:22.518Z,42.24
2018-04-30T13:56:53.469Z,42.22
2018-04-30T13:59:23.116Z,42.19
2018-04-30T14:01:53.289Z,42.18
2018-04-30T14:04:23.241Z,42.14
2018-04-30T14:06:52.659Z,42.18
2018-04-30T14:09:23.285Z,42.33
2018-04-30T14:11:53.034Z,40.26
2018-04-30T14:14:22.905Z,38.22
2018-04-30T14:16:53.031Z,36.92
2018-04-30T14:19:23.020Z,37.31
2018-04-30T14:21:53.257Z,37.34
2018-04-30T14:24:22.951Z,37.65
2018-04-30T14:26:52.891Z,37.74
2018-04-30T14:29:22.262Z,37.80
2018-04-30T14:31:52.263Z,37.83
2018-04-30T14:34:22.054Z,37.80
2018-04-30T14:36:51.448Z,37.86
2018-04-30T14:39:21.495Z,37.95
2018-04-30T14:41:51.276Z,37.95
2018-04-30T14:44:20.865Z,37.95
2018-04-30T14:46:50.407Z,38.02
2018-04-30T14:49:20.289Z,38.06
2018-04-30T14:51:50.070Z,38.04
2018-04-30T14:54:19.491Z,38.06
2018-04-30T14:56:49.293Z,38.13
2018-04-30T14:59:19.247Z,38.18
2018-04-30T15:01:48.715Z,37.99
2018-04-30T15:04:18.494Z,37.95
2018-04-30T15:06:47.918Z,37.85
2018-04-30T15:09:17.541Z,37.84
2018-04-30T15:11:47.047Z,37.82
2018-04-30T15:14:16.568Z,37.85
2018-04-30T15:16:46.250Z,37.87
2018-04-30T15:19:16.127Z,37.84
2018-04-30T15:21:45.769Z,37.78
2018-04-30T15:24:15.859Z,37.72
2018-04-30T15:26:45.304Z,37.67
2018-04-30T15:29:15.154Z,37.79
2018-04-30T15:31:45.275Z,37.73
2018-04-30T15:34:14.918Z,37.70
2018-04-30T15:36:44.611Z,37.67
2018-04-30T15:39:14.483Z,37.85
2018-04-30T15:41:44.965Z,37.88
2018-04-30T15:44:14.427Z,37.98
2018-04-30T15:46:45.788Z,38.07
2018-04-30T15:49:15.440Z,38.24
2018-04-30T15:51:45.314Z,38.42
2018-04-30T15:54:15.174Z,38.55
2018-04-30T15:56:44.897Z,38.59
2018-04-30T15:59:14.723Z,38.62
2018-04-30T16:01:44.483Z,38.60
2018-04-30T16:04:14.617Z,38.72
2018-04-30T16:06:44.167Z,38.78
2018-04-30T16:09:14.232Z,38.85
2018-04-30T16:11:43.960Z,38.63
2018-04-30T16:14:14.579Z,38.17
2018-04-30T16:16:45.550Z,38.05
2018-04-30T16:19:17.156Z,37.96
2018-04-30T16:21:47.849Z,37.97
2018-04-30T16:24:18.372Z,37.95
2018-04-30T16:26:47.925Z,37.90
2018-04-30T16:29:19.109Z,37.85
2018-04-30T16:31:48.880Z,37.75
2018-04-30T16:34:19.115Z,37.72
2018-04-30T16:36:48.670Z,37.69
2018-04-30T16:39:18.541Z,37.68
2018-04-30T16:41:48.157Z,37.59
2018-04-30T16:44:18.013Z,37.43
2018-04-30T16:46:48.782Z,37.42
2018-04-30T16:49:18.822Z,37.44
2018-04-30T16:51:48.446Z,37.45
2018-04-30T16:54:19.225Z,37.44
2018-04-30T16:56:48.886Z,37.48
2018-04-30T16:59:19.445Z,37.47
2018-04-30T17:01:50.608Z,37.48
2018-04-30T17:04:20.246Z,37.49
2018-04-30T17:06:50.111Z,37.51
2018-04-30T17:09:19.731Z,37.73
2018-04-30T17:11:51.526Z,38.04
2018-04-30T17:14:21.583Z,38.33
2018-04-30T17:16:51.987Z,38.55
2018-04-30T17:19:21.724Z,38.63
2018-04-30T17:21:53.169Z,38.69
2018-04-30T17:24:22.887Z,38.80
2018-04-30T17:26:52.364Z,38.90
2018-04-30T17:29:22.232Z,38.99
2018-04-30T17:31:51.749Z,39.06
2018-04-30T17:34:21.833Z,39.12
2018-04-30T17:36:51.677Z,39.19
2018-04-30T17:39:21.181Z,39.27
2018-04-30T17:41:50.614Z,39.42
2018-04-30T17:44:20.166Z,39.51
2018-04-30T17:46:50.601Z,39.57
2018-04-30T17:49:20.536Z,39.68
2018-04-30T17:51:49.960Z,39.77
2018-04-30T17:54:19.518Z,39.81
2018-04-30T17:56:49.077Z,39.85
2018-04-30T17:59:19.515Z,40.01
2018-04-30T18:01:50.027Z,40.14
2018-04-30T18:04:20.574Z,40.20
2018-04-30T18:06:50.343Z,40.28
2018-04-30T18:09:19.923Z,40.25
2018-04-30T18:11:49.412Z,40.35
2018-04-30T18:14:19.772Z,40.46
2018-04-30T18:16:49.428Z,40.60
2018-04-30T18:19:19.289Z,40.74
2018-04-30T18:21:48.855Z,40.81
2018-04-30T18:24:18.738Z,40.89
2018-04-30T18:26:48.252Z,40.97
2018-04-30T18:29:19.757Z,41.00
2018-04-30T18:31:49.231Z,41.08
2018-04-30T18:34:18.876Z,41.16
2018-04-30T18:36:48.323Z,41.03
2018-04-30T18:39:19.395Z,41.10
2018-04-30T18:41:49.033Z,41.26
2018-04-30T18:44:19.064Z,41.34
2018-04-30T18:46:48.845Z,41.45
2018-04-30T18:49:18.618Z,41.51
2018-04-30T18:51:48.132Z,41.71
2018-04-30T18:54:18.557Z,41.78
2018-04-30T18:56:47.985Z,41.81
2018-04-30T18:59:17.742Z,41.89
2018-04-30T19:01:47.199Z,42.02
2018-04-30T19:04:16.887Z,41.98
2018-04-30T19:06:46.587Z,41.92
2018-04-30T19:09:16.288Z,42.05
2018-04-30T19:11:46.567Z,42.17
2018-04-30T19:14:16.324Z,42.13
2018-04-30T19:16:45.861Z,42.32
2018-04-30T19:19:15.842Z,42.39
2018-04-30T19:21:45.506Z,42.40
2018-04-30T19:24:15.798Z,42.45
2018-04-30T19:26:46.028Z,42.53
2018-04-30T19:29:15.660Z,42.64
2018-04-30T19:31:45.479Z,42.59
2018-04-30T19:34:15.043Z,42.51
2018-04-30T19:36:46.577Z,42.49
2018-04-30T19:39:16.514Z,42.69
2018-04-30T19:41:46.413Z,42.73
2018-04-30T19:44:16.931Z,42.75
2018-04-30T19:46:46.952Z,42.76
2018-04-30T19:49:16.413Z,42.84
2018-04-30T19:51:45.897Z,43.04
2018-04-30T19:54:15.814Z,42.89
2018-04-30T19:56:45.860Z,42.92
2018-04-30T19:59:15.693Z,42.87
2018-04-30T20:01:46.457Z,43.12
2018-04-30T20:04:16.644Z,43.24
2018-04-30T20:06:47.200Z,43.18
2018-04-30T20:09:17.994Z,43.28
2018-04-30T20:11:49.595Z,43.24
2018-04-30T20:14:20.284Z,43.03
2018-04-30T20:16:50.677Z,43.24
2018-04-30T20:19:20.549Z,43.33
2018-04-30T20:21:55.197Z,43.23
2018-04-30T20:24:25.152Z,43.30
2018-04-30T20:26:54.886Z,43.29
2018-04-30T20:29:24.505Z,43.20
2018-04-30T20:31:54.241Z,43.56
2018-04-30T20:34:24.397Z,43.37
2018-04-30T20:36:54.015Z,43.38
2018-04-30T20:39:24.201Z,43.62
2018-04-30T20:41:53.844Z,43.47
2018-04-30T20:44:23.254Z,43.52
2018-04-30T20:46:53.634Z,43.40
2018-04-30T20:49:23.935Z,43.42
2018-04-30T20:51:53.841Z,43.61
2018-04-30T20:54:23.960Z,43.55
2018-04-30T20:56:53.620Z,43.57
2018-04-30T20:59:23.710Z,43.57
2018-04-30T21:01:53.553Z,43.48
2018-04-30T21:04:23.042Z,43.70
2018-04-30T21:06:52.548Z,43.71
2018-04-30T21:09:22.375Z,43.59
2018-04-30T21:11:52.415Z,43.76
2018-04-30T21:14:21.861Z,43.55
2018-04-30T21:16:51.917Z,43.55
2018-04-30T21:19:21.563Z,43.54
2018-04-30T21:21:51.021Z,43.50
2018-04-30T21:24:21.006Z,43.59
2018-04-30T21:26:50.805Z,43.55
2018-04-30T21:29:20.573Z,43.73
2018-04-30T21:31:50.357Z,43.58
2018-04-30T21:34:19.797Z,43.61
2018-04-30T21:36:49.743Z,43.37
2018-04-30T21:39:19.562Z,43.63
2018-04-30T21:41:48.971Z,43.78
2018-04-30T21:44:18.468Z,43.86
2018-04-30T21:46:48.900Z,43.79
2018-04-30T21:49:18.352Z,43.83
2018-04-30T21:51:47.995Z,43.84
2018-04-30T21:54:17.807Z,43.83
2018-04-30T21:56:47.198Z,43.76
2018-04-30T21:59:16.705Z,43.99
2018-04-30T22:01:46.852Z,43.79
2018-04-30T22:04:16.961Z,44.08
2018-04-30T22:06:47.363Z,44.18
2018-04-30T22:09:17.185Z,44.02
2018-04-30T22:11:46.703Z,43.96
2018-04-30T22:14:16.371Z,43.80
2018-04-30T22:16:46.684Z,43.71
2018-04-30T22:19:16.731Z,43.93
2018-04-30T22:21:46.243Z,43.71
2018-04-30T22:24:16.015Z,43.74
2018-04-30T22:26:45.421Z,44.10
2018-04-30T22:29:15.568Z,43.83
2018-04-30T22:31:45.902Z,43.90
2018-04-30T22:34:15.596Z,44.02
2018-04-30T22:36:45.007Z,43.87
2018-04-30T22:39:15.120Z,44.06
2018-04-30T22:41:44.793Z,43.89
2018-04-30T22:44:14.290Z,43.86
2018-04-30T22:46:44.201Z,43.87
2018-04-30T22:49:14.272Z,44.08
2018-04-30T22:51:43.770Z,43.74
2018-04-30T22:54:13.566Z,44.19
2018-04-30T22:56:44.518Z,44.17
2018-04-30T22:59:13.910Z,43.86
2018-04-30T23:01:44.990Z,44.13
2018-04-30T23:04:14.743Z,43.99
2018-04-30T23:06:45.012Z,43.98
2018-04-30T23:09:14.979Z,43.99
2018-04-30T23:11:46.245Z,44.00
2018-04-30T23:14:16.497Z,44.25
2018-04-30T23:16:47.007Z,44.09
2018-04-30T23:19:16.929Z,44.14
2018-04-30T23:21:46.538Z,44.18
2018-04-30T23:24:16.244Z,44.01
2018-04-30T23:26:45.822Z,43.87
2018-04-30T23:29:15.760Z,44.39
2018-04-30T23:31:45.936Z,44.16
2018-04-30T23:34:16.045Z,44.21
2018-04-30T23:36:46.793Z,44.21
2018-04-30T23:39:18.994Z,44.28
2018-04-30T23:41:49.709Z,44.21
2018-04-30T23:44:20.299Z,44.36
2018-04-30T23:46:50.918Z,44.49
2018-04-30T23:49:21.258Z,44.20
2018-04-30T23:51:50.939Z,44.28
2018-04-30T23:54:20.587Z,44.35
2018-04-30T23:56:49.968Z,44.54
2018-04-30T23:59:19.918Z,44.33
